sensor_id;sensor_type;location;lat;lon;timestamp;pressure;altitude;pressure_sealevel;temperature;humidity
48644;BME280;34928;37.302;-121.984;2023-09-08T00:05:12;100638.0;;;30.34;34.36
48644;BME280;34928;37.302;-121.984;2023-09-08T00:15:18;100639.0;;;30.52;34.18
48644;BME280;34928;37.302;-121.984;2023-09-08T00:25:23;100641.0;;;30.72;33.96
48644;BME280;34928;37.302;-121.984;2023-09-08T00:35:28;100638.0;;;30.79;33.97
48644;BME280;34928;37.302;-121.984;2023-09-08T00:45:37;100646.0;;;30.73;33.99
48644;BME280;34928;37.302;-121.984;2023-09-08T00:55:43;100643.0;;;30.86;33.11
48644;BME280;34928;37.302;-121.984;2023-09-08T01:05:47;100648.0;;;30.92;32.94
48644;BME280;34928;37.302;-121.984;2023-09-08T01:15:53;100650.0;;;30.74;32.79
48644;BME280;34928;37.302;-121.984;2023-09-08T01:26:03;100657.0;;;31.06;32.55
48644;BME280;34928;37.302;-121.984;2023-09-08T01:36:08;100678.0;;;31.16;32.51
48644;BME280;34928;37.302;-121.984;2023-09-08T01:46:13;100686.0;;;31.00;30.45
48644;BME280;34928;37.302;-121.984;2023-09-08T01:56:18;100687.0;;;30.99;29.73
48644;BME280;34928;37.302;-121.984;2023-09-08T02:06:23;100705.0;;;31.11;30.98
48644;BME280;34928;37.302;-121.984;2023-09-08T02:16:28;100712.0;;;31.22;31.51
48644;BME280;34928;37.302;-121.984;2023-09-08T02:26:32;100724.0;;;31.25;31.78
48644;BME280;34928;37.302;-121.984;2023-09-08T02:36:38;100729.0;;;31.27;31.94
48644;BME280;34928;37.302;-121.984;2023-09-08T02:46:43;100741.0;;;31.26;31.88
48644;BME280;34928;37.302;-121.984;2023-09-08T02:56:47;100749.0;;;30.98;31.86
48644;BME280;34928;37.302;-121.984;2023-09-08T03:06:53;100768.0;;;31.25;31.82
48644;BME280;34928;37.302;-121.984;2023-09-08T03:16:58;100787.0;;;31.34;31.63
48644;BME280;34928;37.302;-121.984;2023-09-08T03:27:03;100794.0;;;31.35;31.55
48644;BME280;34928;37.302;-121.984;2023-09-08T03:37:07;100800.0;;;31.15;31.69
48644;BME280;34928;37.302;-121.984;2023-09-08T03:47:13;100815.0;;;29.80;30.47
48644;BME280;34928;37.302;-121.984;2023-09-08T03:57:18;100828.0;;;27.28;34.55
48644;BME280;34928;37.302;-121.984;2023-09-08T04:07:23;100845.0;;;26.26;36.45
48644;BME280;34928;37.302;-121.984;2023-09-08T04:17:28;100853.0;;;25.74;37.37
48644;BME280;34928;37.302;-121.984;2023-09-08T04:27:33;100863.0;;;25.44;37.80
48644;BME280;34928;37.302;-121.984;2023-09-08T04:37:38;100868.0;;;25.56;38.24
48644;BME280;34928;37.302;-121.984;2023-09-08T04:47:42;100867.0;;;25.29;38.49
48644;BME280;34928;37.302;-121.984;2023-09-08T04:57:47;100871.0;;;25.34;38.76
48644;BME280;34928;37.302;-121.984;2023-09-08T05:07:53;100875.0;;;24.81;39.63
48644;BME280;34928;37.302;-121.984;2023-09-08T05:17:57;100877.0;;;24.41;40.09
48644;BME280;34928;37.302;-121.984;2023-09-08T05:28:03;100872.0;;;24.68;40.37
48644;BME280;34928;37.302;-121.984;2023-09-08T05:38:08;100868.0;;;24.46;40.75
48644;BME280;34928;37.302;-121.984;2023-09-08T05:48:12;100865.0;;;24.27;40.89
48644;BME280;34928;37.302;-121.984;2023-09-08T05:58:18;100859.0;;;23.99;41.41
48644;BME280;34928;37.302;-121.984;2023-09-08T06:08:22;100859.0;;;23.86;41.17
48644;BME280;34928;37.302;-121.984;2023-09-08T06:28:33;100857.0;;;23.74;41.85
48644;BME280;34928;37.302;-121.984;2023-09-08T06:38:38;100864.0;;;23.62;42.40
48644;BME280;34928;37.302;-121.984;2023-09-08T06:48:43;100870.0;;;23.35;42.51
48644;BME280;34928;37.302;-121.984;2023-09-08T06:58:48;100865.0;;;22.72;43.12
48644;BME280;34928;37.302;-121.984;2023-09-08T07:08:52;100867.0;;;22.56;43.42
48644;BME280;34928;37.302;-121.984;2023-09-08T07:18:57;100872.0;;;23.24;42.48
48644;BME280;34928;37.302;-121.984;2023-09-08T07:29:04;100881.0;;;24.99;38.99
48644;BME280;34928;37.302;-121.984;2023-09-08T07:39:08;100878.0;;;25.86;36.80
48644;BME280;34928;37.302;-121.984;2023-09-08T07:49:12;100877.0;;;25.48;37.29
48644;BME280;34928;37.302;-121.984;2023-09-08T07:59:17;100869.0;;;25.84;36.04
48644;BME280;34928;37.302;-121.984;2023-09-08T08:09:22;100866.0;;;26.21;35.72
48644;BME280;34928;37.302;-121.984;2023-09-08T08:19:28;100864.0;;;26.05;35.49
48644;BME280;34928;37.302;-121.984;2023-09-08T08:29:33;100864.0;;;26.26;35.49
48644;BME280;34928;37.302;-121.984;2023-09-08T08:39:37;100860.0;;;26.02;35.35
48644;BME280;34928;37.302;-121.984;2023-09-08T08:49:44;100861.0;;;26.06;35.54
48644;BME280;34928;37.302;-121.984;2023-09-08T08:59:54;100866.0;;;25.61;35.65
48644;BME280;34928;37.302;-121.984;2023-09-08T09:09:58;100862.0;;;25.97;35.74
48644;BME280;34928;37.302;-121.984;2023-09-08T09:30:24;100855.0;;;25.96;35.36
48644;BME280;34928;37.302;-121.984;2023-09-08T09:40:29;100857.0;;;26.07;35.24
48644;BME280;34928;37.302;-121.984;2023-09-08T09:50:33;100857.0;;;25.83;35.26
48644;BME280;34928;37.302;-121.984;2023-09-08T10:00:39;100849.0;;;25.75;35.16
48644;BME280;34928;37.302;-121.984;2023-09-08T10:10:45;100850.0;;;25.45;35.20
48644;BME280;34928;37.302;-121.984;2023-09-08T10:20:54;100847.0;;;25.17;35.22
48644;BME280;34928;37.302;-121.984;2023-09-08T10:31:03;100845.0;;;25.67;34.91
48644;BME280;34928;37.302;-121.984;2023-09-08T10:51:28;100857.0;;;25.57;34.72
48644;BME280;34928;37.302;-121.984;2023-09-08T11:01:33;100851.0;;;25.42;34.99
48644;BME280;34928;37.302;-121.984;2023-09-08T11:11:39;100859.0;;;24.67;35.38
48644;BME280;34928;37.302;-121.984;2023-09-08T11:21:42;100865.0;;;24.84;34.82
48644;BME280;34928;37.302;-121.984;2023-09-08T11:31:53;100855.0;;;25.61;34.84
48644;BME280;34928;37.302;-121.984;2023-09-08T11:42:02;100863.0;;;25.31;34.37
48644;BME280;34928;37.302;-121.984;2023-09-08T11:52:07;100863.0;;;24.94;34.50
48644;BME280;34928;37.302;-121.984;2023-09-08T12:02:13;100869.0;;;24.80;34.50
48644;BME280;34928;37.302;-121.984;2023-09-08T12:12:17;100871.0;;;24.78;34.67
48644;BME280;34928;37.302;-121.984;2023-09-08T12:22:23;100884.0;;;24.54;34.33
48644;BME280;34928;37.302;-121.984;2023-09-08T12:32:30;100888.0;;;24.67;34.52
48644;BME280;34928;37.302;-121.984;2023-09-08T12:42:37;100903.0;;;24.39;34.30
48644;BME280;34928;37.302;-121.984;2023-09-08T12:52:43;100910.0;;;24.44;34.58
48644;BME280;34928;37.302;-121.984;2023-09-08T13:02:48;100923.0;;;24.24;34.35
48644;BME280;34928;37.302;-121.984;2023-09-08T13:12:53;100936.0;;;24.28;34.40
48644;BME280;34928;37.302;-121.984;2023-09-08T13:22:57;100933.0;;;23.92;34.57
48644;BME280;34928;37.302;-121.984;2023-09-08T13:33:03;100947.0;;;24.17;34.70
48644;BME280;34928;37.302;-121.984;2023-09-08T13:43:07;100939.0;;;24.05;34.87
48644;BME280;34928;37.302;-121.984;2023-09-08T13:53:12;100947.0;;;24.59;34.15
48644;BME280;34928;37.302;-121.984;2023-09-08T14:03:18;100945.0;;;24.26;34.42
48644;BME280;34928;37.302;-121.984;2023-09-08T14:13:23;100955.0;;;23.32;35.62
48644;BME280;34928;37.302;-121.984;2023-09-08T14:23:27;100949.0;;;24.28;34.72
48644;BME280;34928;37.302;-121.984;2023-09-08T14:33:32;100954.0;;;24.92;34.32
48644;BME280;34928;37.302;-121.984;2023-09-08T14:43:38;100959.0;;;25.06;33.83
48644;BME280;34928;37.302;-121.984;2023-09-08T14:53:42;100960.0;;;25.72;33.46
48644;BME280;34928;37.302;-121.984;2023-09-08T15:03:48;100963.0;;;25.89;32.81
48644;BME280;34928;37.302;-121.984;2023-09-08T15:13:53;100968.0;;;26.34;32.41
48644;BME280;34928;37.302;-121.984;2023-09-08T15:23:58;100978.0;;;26.01;32.60
48644;BME280;34928;37.302;-121.984;2023-09-08T15:34:03;100982.0;;;25.82;32.47
48644;BME280;34928;37.302;-121.984;2023-09-08T15:44:08;100989.0;;;25.82;32.57
48644;BME280;34928;37.302;-121.984;2023-09-08T15:54:12;101007.0;;;26.39;32.15
48644;BME280;34928;37.302;-121.984;2023-09-08T16:04:18;101008.0;;;26.86;31.81
48644;BME280;34928;37.302;-121.984;2023-09-08T16:14:23;101008.0;;;27.07;31.51
48644;BME280;34928;37.302;-121.984;2023-09-08T16:24:27;101011.0;;;26.68;31.43
48644;BME280;34928;37.302;-121.984;2023-09-08T16:34:33;101020.0;;;26.82;31.29
48644;BME280;34928;37.302;-121.984;2023-09-08T16:44:40;101020.0;;;26.92;31.25
48644;BME280;34928;37.302;-121.984;2023-09-08T16:54:48;101023.0;;;26.36;32.24
48644;BME280;34928;37.302;-121.984;2023-09-08T17:04:52;101029.0;;;26.07;32.48
48644;BME280;34928;37.302;-121.984;2023-09-08T17:14:57;101021.0;;;26.30;32.20
48644;BME280;34928;37.302;-121.984;2023-09-08T17:25:02;101020.0;;;26.67;32.16
48644;BME280;34928;37.302;-121.984;2023-09-08T17:35:08;101021.0;;;26.39;32.04
48644;BME280;34928;37.302;-121.984;2023-09-08T17:45:12;101019.0;;;26.62;31.54
48644;BME280;34928;37.302;-121.984;2023-09-08T17:55:18;101022.0;;;26.64;31.60
48644;BME280;34928;37.302;-121.984;2023-09-08T18:05:23;101014.0;;;26.60;31.97
48644;BME280;34928;37.302;-121.984;2023-09-08T18:15:28;101008.0;;;26.72;31.75
48644;BME280;34928;37.302;-121.984;2023-09-08T18:25:33;100995.0;;;26.89;31.60
48644;BME280;34928;37.302;-121.984;2023-09-08T18:35:38;100984.0;;;26.68;31.65
48644;BME280;34928;37.302;-121.984;2023-09-08T18:45:43;100984.0;;;27.08;31.48
48644;BME280;34928;37.302;-121.984;2023-09-08T18:55:47;100972.0;;;27.12;31.59
48644;BME280;34928;37.302;-121.984;2023-09-08T19:05:52;100968.0;;;27.24;31.49
48644;BME280;34928;37.302;-121.984;2023-09-08T19:15:58;100971.0;;;27.37;31.39
48644;BME280;34928;37.302;-121.984;2023-09-08T19:26:06;100956.0;;;27.20;31.50
48644;BME280;34928;37.302;-121.984;2023-09-08T19:36:12;100946.0;;;27.51;31.54
48644;BME280;34928;37.302;-121.984;2023-09-08T19:46:18;100934.0;;;27.36;31.60
48644;BME280;34928;37.302;-121.984;2023-09-08T19:56:23;100928.0;;;27.45;31.67
48644;BME280;34928;37.302;-121.984;2023-09-08T20:06:27;100917.0;;;27.73;31.78
48644;BME280;34928;37.302;-121.984;2023-09-08T20:16:32;100916.0;;;27.39;31.79
48644;BME280;34928;37.302;-121.984;2023-09-08T20:26:37;100910.0;;;27.92;31.93
48644;BME280;34928;37.302;-121.984;2023-09-08T20:36:43;100899.0;;;27.79;31.94
48644;BME280;34928;37.302;-121.984;2023-09-08T20:46:47;100889.0;;;28.16;31.99
48644;BME280;34928;37.302;-121.984;2023-09-08T20:56:53;100879.0;;;28.24;32.06
48644;BME280;34928;37.302;-121.984;2023-09-08T21:06:57;100882.0;;;27.82;32.12
48644;BME280;34928;37.302;-121.984;2023-09-08T21:17:02;100874.0;;;28.27;32.06
48644;BME280;34928;37.302;-121.984;2023-09-08T21:27:07;100874.0;;;28.34;32.12
48644;BME280;34928;37.302;-121.984;2023-09-08T21:37:13;100871.0;;;27.82;31.88
48644;BME280;34928;37.302;-121.984;2023-09-08T21:47:17;100876.0;;;27.48;31.40
48644;BME280;34928;37.302;-121.984;2023-09-08T21:57:22;100871.0;;;27.19;30.86
48644;BME280;34928;37.302;-121.984;2023-09-08T22:07:27;100860.0;;;26.99;30.59
48644;BME280;34928;37.302;-121.984;2023-09-08T22:17:33;100855.0;;;27.02;30.15
48644;BME280;34928;37.302;-121.984;2023-09-08T22:27:37;100849.0;;;26.93;29.89
48644;BME280;34928;37.302;-121.984;2023-09-08T22:37:42;100847.0;;;26.80;29.81
48644;BME280;34928;37.302;-121.984;2023-09-08T22:47:47;100843.0;;;26.71;29.71
48644;BME280;34928;37.302;-121.984;2023-09-08T22:57:52;100838.0;;;26.80;29.50
48644;BME280;34928;37.302;-121.984;2023-09-08T23:07:57;100834.0;;;27.17;29.17
48644;BME280;34928;37.302;-121.984;2023-09-08T23:18:03;100826.0;;;27.77;29.89
48644;BME280;34928;37.302;-121.984;2023-09-08T23:28:07;100831.0;;;28.49;30.04
48644;BME280;34928;37.302;-121.984;2023-09-08T23:38:13;100836.0;;;28.65;30.36
48644;BME280;34928;37.302;-121.984;2023-09-08T23:48:18;100839.0;;;28.67;30.47
48644;BME280;34928;37.302;-121.984;2023-09-08T23:58:22;100837.0;;;28.56;30.73
